createdAt,value
2022-10-02T00:01:44.033Z,13.42
2022-10-02T00:06:48.479Z,13.38
2022-10-02T00:11:54.258Z,13.39
2022-10-02T00:16:58.634Z,13.37
2022-10-02T00:22:04.154Z,13.42
2022-10-02T00:27:18.863Z,13.34
2022-10-02T00:32:33.105Z,13.22
2022-10-02T00:37:53.665Z,13.22
2022-10-02T00:43:17.903Z,13.11
2022-10-02T00:48:32.012Z,13.16
2022-10-02T00:53:52.819Z,13.12
2022-10-02T00:59:30.494Z,12.92
2022-10-02T01:04:35.461Z,12.93
2022-10-02T01:09:38.740Z,13.03
2022-10-02T01:14:41.646Z,13.10
2022-10-02T01:19:44.012Z,13.20
2022-10-02T01:24:53.613Z,13.15
2022-10-02T01:30:00.625Z,13.24
2022-10-02T01:35:03.245Z,13.00
2022-10-02T01:40:11.655Z,13.03
2022-10-02T01:45:14.293Z,13.14
2022-10-02T01:50:25.352Z,13.04
2022-10-02T01:55:33.551Z,13.24
2022-10-02T02:00:52.827Z,13.17
2022-10-02T02:06:07.927Z,13.43
2022-10-02T02:11:18.953Z,13.33
2022-10-02T02:16:46.816Z,13.40
2022-10-02T02:22:04.479Z,13.23
2022-10-02T02:27:08.048Z,13.16
2022-10-02T02:32:11.653Z,13.42
2022-10-02T02:37:19.254Z,13.27
2022-10-02T02:42:25.856Z,13.44
2022-10-02T02:47:35.127Z,13.10
2022-10-02T02:52:45.773Z,13.42
2022-10-02T02:57:56.532Z,13.28
2022-10-02T03:02:58.990Z,13.34
2022-10-02T03:08:04.615Z,13.12
2022-10-02T03:13:21.994Z,13.39
2022-10-02T03:18:37.687Z,13.39
2022-10-02T03:24:01.831Z,13.49
2022-10-02T03:29:09.615Z,13.25
2022-10-02T03:34:12.636Z,13.08
2022-10-02T03:39:30.471Z,13.15
2022-10-02T03:44:32.726Z,13.37
2022-10-02T03:49:35.333Z,13.29
2022-10-02T03:54:38.001Z,13.15
2022-10-02T04:00:02.182Z,13.10
2022-10-02T04:05:29.958Z,13.17
2022-10-02T04:10:41.335Z,13.19
2022-10-02T04:15:52.836Z,13.13
2022-10-02T04:21:07.905Z,13.08
2022-10-02T04:26:20.631Z,13.22
2022-10-02T04:31:27.491Z,13.39
2022-10-02T04:36:41.349Z,13.40
2022-10-02T04:42:06.107Z,13.19
2022-10-02T04:47:11.315Z,13.26
2022-10-02T04:52:25.165Z,13.17
2022-10-02T04:58:00.428Z,13.03
2022-10-02T05:03:14.791Z,12.89
2022-10-02T05:08:19.846Z,12.87
2022-10-02T05:13:55.390Z,12.80
2022-10-02T05:19:29.934Z,12.80
2022-10-02T05:24:32.878Z,12.94
2022-10-02T05:30:05.312Z,13.04
2022-10-02T05:35:16.758Z,13.15
2022-10-02T05:40:23.015Z,13.40
2022-10-02T05:45:53.749Z,13.61
2022-10-02T05:51:04.450Z,13.21
2022-10-02T05:56:12.403Z,13.28
2022-10-02T06:01:20.095Z,13.43
2022-10-02T06:06:54.424Z,13.50
2022-10-02T06:12:00.696Z,13.54
2022-10-02T06:17:16.114Z,13.51
2022-10-02T06:22:30.763Z,13.97
2022-10-02T06:27:48.533Z,13.78
2022-10-02T06:33:02.118Z,13.90
2022-10-02T06:38:17.046Z,13.71
2022-10-02T06:43:22.041Z,13.84
2022-10-02T06:48:33.847Z,14.03
2022-10-02T06:53:57.284Z,14.21
2022-10-02T06:59:31.786Z,14.11
2022-10-02T07:04:42.306Z,13.83
2022-10-02T07:10:18.677Z,14.36
2022-10-02T07:15:31.538Z,14.36
2022-10-02T07:21:15.765Z,14.27
2022-10-02T07:26:43.241Z,14.56
2022-10-02T07:31:46.276Z,14.68
2022-10-02T07:37:15.085Z,14.70
2022-10-02T07:42:30.724Z,14.62
2022-10-02T07:47:43.227Z,15.04
2022-10-02T07:53:06.513Z,15.16
2022-10-02T07:58:19.281Z,15.06
2022-10-02T08:03:52.713Z,15.19
2022-10-02T08:08:55.076Z,15.45
2022-10-02T08:14:03.570Z,15.51
2022-10-02T08:19:14.580Z,15.39
2022-10-02T08:24:26.849Z,15.31
2022-10-02T08:29:53.943Z,15.69
2022-10-02T08:34:56.686Z,15.98
2022-10-02T08:40:23.951Z,15.74
2022-10-02T08:45:47.541Z,15.55
2022-10-02T08:51:10.117Z,15.22
2022-10-02T08:56:34.318Z,15.44
2022-10-02T09:02:31.430Z,15.43
2022-10-02T09:08:09.985Z,15.43
2022-10-02T09:13:30.758Z,15.46
2022-10-02T09:18:48.280Z,15.53
2022-10-02T09:24:02.794Z,15.50
2022-10-02T09:29:35.138Z,15.67
2022-10-02T09:34:52.276Z,16.06
2022-10-02T09:40:06.914Z,15.50
2022-10-02T09:45:36.597Z,15.53
2022-10-02T09:51:18.582Z,15.33
2022-10-02T09:56:45.663Z,15.52
2022-10-02T10:02:03.918Z,15.68
2022-10-02T10:07:52.528Z,16.11
2022-10-02T10:13:22.396Z,15.88
2022-10-02T10:18:51.997Z,16.33
2022-10-02T10:23:54.351Z,16.14
2022-10-02T10:29:07.712Z,16.25
2022-10-02T10:34:46.305Z,16.58
2022-10-02T10:40:25.072Z,16.36
2022-10-02T10:45:29.809Z,16.15
2022-10-02T10:50:46.813Z,16.13
2022-10-02T10:55:52.143Z,15.76
2022-10-02T11:01:18.937Z,16.12
2022-10-02T11:06:38.956Z,16.63
2022-10-02T11:11:45.141Z,16.09
2022-10-02T11:17:05.798Z,16.19
2022-10-02T11:22:17.062Z,15.81
2022-10-02T11:27:39.350Z,15.97
2022-10-02T11:33:16.792Z,16.53
2022-10-02T11:39:00.811Z,15.97
2022-10-02T11:44:16.957Z,15.90
2022-10-02T11:49:37.853Z,16.34
2022-10-02T11:54:59.856Z,16.83
2022-10-02T12:00:13.498Z,16.05
2022-10-02T12:05:25.583Z,16.21
2022-10-02T12:10:46.558Z,16.07
2022-10-02T12:16:04.107Z,16.14
2022-10-02T12:21:40.043Z,16.21
2022-10-02T12:26:59.082Z,16.68
2022-10-02T12:32:10.966Z,16.75
2022-10-02T12:37:25.830Z,16.74
2022-10-02T12:42:41.145Z,16.18
2022-10-02T12:48:00.601Z,16.20
2022-10-02T12:53:17.889Z,16.09
2022-10-02T12:58:29.554Z,16.09
2022-10-02T13:03:44.125Z,17.09
2022-10-02T13:08:55.386Z,17.22
2022-10-02T13:14:07.478Z,17.43
2022-10-02T13:19:22.042Z,17.66
2022-10-02T13:24:46.892Z,18.20
2022-10-02T13:30:00.454Z,18.19
2022-10-02T13:35:25.567Z,17.43
2022-10-02T13:40:29.653Z,18.08
2022-10-02T13:45:42.280Z,17.97
2022-10-02T13:50:56.830Z,17.90
2022-10-02T13:56:34.548Z,16.89
2022-10-02T14:02:10.605Z,16.69
2022-10-02T14:07:28.715Z,17.58
2022-10-02T14:12:55.771Z,17.35
2022-10-02T14:18:07.266Z,17.73
2022-10-02T14:23:30.597Z,17.79
2022-10-02T14:28:57.170Z,17.64
2022-10-02T14:34:57.826Z,17.72
2022-10-02T14:40:02.371Z,17.85
2022-10-02T14:45:19.318Z,17.40
2022-10-02T14:51:09.733Z,17.14
2022-10-02T14:56:23.760Z,16.93
2022-10-02T15:01:27.080Z,17.26
2022-10-02T15:06:35.187Z,16.91
2022-10-02T15:11:37.758Z,16.42
2022-10-02T15:17:20.849Z,15.76
2022-10-02T15:22:27.088Z,15.58
2022-10-02T15:27:44.802Z,15.43
2022-10-02T15:33:03.484Z,15.48
2022-10-02T15:38:31.500Z,15.46
2022-10-02T15:43:39.357Z,15.28
2022-10-02T15:49:36.806Z,15.18
2022-10-02T15:54:57.591Z,15.23
2022-10-02T16:00:10.863Z,15.04
2022-10-02T16:05:40.425Z,14.51
2022-10-02T16:11:26.638Z,13.69
2022-10-02T16:17:07.683Z,13.16
2022-10-02T16:22:17.930Z,12.80
2022-10-02T16:27:51.521Z,12.92
2022-10-02T16:33:23.846Z,12.92
2022-10-02T16:38:41.144Z,13.00
2022-10-02T16:43:49.251Z,13.02
2022-10-02T16:48:51.906Z,12.74
2022-10-02T16:54:37.191Z,12.49
2022-10-02T16:59:45.030Z,12.40
2022-10-02T17:05:12.442Z,12.23
2022-10-02T17:10:22.077Z,11.85
2022-10-02T17:15:33.544Z,11.88
2022-10-02T17:20:47.296Z,12.15
2022-10-02T17:26:01.523Z,12.10
2022-10-02T17:31:34.693Z,12.02
2022-10-02T17:36:54.619Z,12.09
2022-10-02T17:42:10.048Z,12.05
2022-10-02T17:47:38.347Z,12.06
2022-10-02T17:53:05.271Z,11.83
2022-10-02T17:58:37.749Z,11.66
2022-10-02T18:03:48.947Z,11.68
2022-10-02T18:09:00.013Z,11.87
2022-10-02T18:14:11.443Z,11.92
2022-10-02T18:19:18.396Z,12.18
2022-10-02T18:24:42.824Z,12.24
2022-10-02T18:30:09.775Z,12.22
2022-10-02T18:35:22.191Z,12.33
2022-10-02T18:40:56.215Z,12.09
2022-10-02T18:46:07.808Z,12.21
2022-10-02T18:51:39.406Z,12.09
2022-10-02T18:56:46.835Z,12.16
2022-10-02T19:02:02.640Z,12.16
2022-10-02T19:07:16.676Z,12.28
2022-10-02T19:12:25.565Z,12.27
2022-10-02T19:17:31.026Z,12.00
2022-10-02T19:22:38.587Z,11.94
2022-10-02T19:27:42.290Z,11.83
2022-10-02T19:32:48.976Z,11.80
2022-10-02T19:37:53.133Z,11.94
2022-10-02T19:43:04.827Z,11.82
2022-10-02T19:48:09.993Z,11.79
2022-10-02T19:53:24.390Z,11.78
2022-10-02T19:58:49.917Z,11.67
2022-10-02T20:03:57.351Z,11.64
2022-10-02T20:09:13.399Z,11.71
2022-10-02T20:14:19.392Z,11.47
2022-10-02T20:19:26.482Z,11.59
2022-10-02T20:24:59.470Z,11.49
2022-10-02T20:30:12.894Z,11.42
2022-10-02T20:35:35.686Z,11.53
2022-10-02T20:40:38.313Z,11.22
2022-10-02T20:45:53.143Z,11.32
2022-10-02T20:51:09.993Z,11.15
2022-10-02T20:56:43.254Z,11.07
2022-10-02T21:02:21.182Z,11.24
2022-10-02T21:07:54.178Z,11.25
2022-10-02T21:13:24.557Z,11.13
2022-10-02T21:18:35.590Z,11.13
2022-10-02T21:23:46.801Z,11.17
2022-10-02T21:29:10.461Z,11.36
2022-10-02T21:34:44.305Z,11.39
2022-10-02T21:39:49.501Z,11.14
2022-10-02T21:45:13.971Z,11.09
2022-10-02T21:50:50.834Z,11.07
2022-10-02T21:56:15.006Z,10.94
2022-10-02T22:01:42.582Z,11.14
2022-10-02T22:07:06.725Z,10.89
2022-10-02T22:12:24.537Z,11.02
2022-10-02T22:17:29.360Z,10.90
2022-10-02T22:22:40.214Z,10.96
2022-10-02T22:27:45.524Z,11.03
2022-10-02T22:33:09.296Z,10.87
2022-10-02T22:38:26.165Z,11.04
2022-10-02T22:43:32.844Z,10.93
2022-10-02T22:48:57.901Z,11.01
2022-10-02T22:54:12.094Z,10.95
2022-10-02T22:59:22.507Z,10.96
2022-10-02T23:04:33.438Z,11.03
2022-10-02T23:10:01.433Z,10.79
2022-10-02T23:15:06.804Z,11.01
2022-10-02T23:20:14.438Z,11.19
2022-10-02T23:25:31.295Z,10.75
2022-10-02T23:30:38.707Z,10.89
2022-10-02T23:35:49.986Z,10.97
2022-10-02T23:41:47.135Z,10.98
2022-10-02T23:46:49.407Z,11.06
2022-10-02T23:52:31.672Z,11.09
2022-10-02T23:57:54.796Z,11.11
